sensor_id;sensor_type;location;lat;lon;timestamp;pressure;altitude;pressure_sealevel;temperature
47484;BMP280;54076;50.322;18.650;2023-06-04T00:02:02;98202.70;;;7.17
47484;BMP280;54076;50.322;18.650;2023-06-04T00:07:04;98198.67;;;7.15
47484;BMP280;54076;50.322;18.650;2023-06-04T00:12:06;98191.09;;;7.08
47484;BMP280;54076;50.322;18.650;2023-06-04T00:17:09;98187.79;;;7.01
47484;BMP280;54076;50.322;18.650;2023-06-04T00:22:10;98188.02;;;6.95
47484;BMP280;54076;50.322;18.650;2023-06-04T00:27:11;98187.81;;;6.78
47484;BMP280;54076;50.322;18.650;2023-06-04T00:32:12;98192.41;;;6.80
47484;BMP280;54076;50.322;18.650;2023-06-04T00:37:13;98188.30;;;6.78
47484;BMP280;54076;50.322;18.650;2023-06-04T00:42:14;98178.86;;;6.61
47484;BMP280;54076;50.322;18.650;2023-06-04T00:47:17;98178.03;;;6.71
47484;BMP280;54076;50.322;18.650;2023-06-04T00:52:18;98173.54;;;6.63
47484;BMP280;54076;50.322;18.650;2023-06-04T00:57:22;98173.30;;;6.57
47484;BMP280;54076;50.322;18.650;2023-06-04T01:02:25;98169.41;;;6.49
47484;BMP280;54076;50.322;18.650;2023-06-04T01:07:27;98166.96;;;6.39
47484;BMP280;54076;50.322;18.650;2023-06-04T01:12:29;98165.10;;;6.31
47484;BMP280;54076;50.322;18.650;2023-06-04T01:17:42;98164.73;;;6.29
47484;BMP280;54076;50.322;18.650;2023-06-04T01:28:03;98163.57;;;6.19
47484;BMP280;54076;50.322;18.650;2023-06-04T01:33:05;98163.69;;;6.22
47484;BMP280;54076;50.322;18.650;2023-06-04T01:38:07;98160.23;;;6.09
47484;BMP280;54076;50.322;18.650;2023-06-04T01:43:09;98158.61;;;6.24
47484;BMP280;54076;50.322;18.650;2023-06-04T01:48:10;98157.06;;;6.16
47484;BMP280;54076;50.322;18.650;2023-06-04T01:53:11;98159.15;;;6.17
47484;BMP280;54076;50.322;18.650;2023-06-04T01:58:12;98159.13;;;6.22
47484;BMP280;54076;50.322;18.650;2023-06-04T02:03:13;98157.23;;;6.20
47484;BMP280;54076;50.322;18.650;2023-06-04T02:08:16;98154.31;;;6.14
47484;BMP280;54076;50.322;18.650;2023-06-04T02:13:20;98150.50;;;6.07
47484;BMP280;54076;50.322;18.650;2023-06-04T02:18:21;98145.43;;;6.10
47484;BMP280;54076;50.322;18.650;2023-06-04T02:23:22;98148.27;;;6.06
47484;BMP280;54076;50.322;18.650;2023-06-04T02:28:23;98156.48;;;6.11
47484;BMP280;54076;50.322;18.650;2023-06-04T02:33:25;98155.88;;;6.12
47484;BMP280;54076;50.322;18.650;2023-06-04T02:38:26;98156.17;;;5.95
47484;BMP280;54076;50.322;18.650;2023-06-04T02:43:27;98157.37;;;5.92
47484;BMP280;54076;50.322;18.650;2023-06-04T02:48:28;98152.38;;;5.89
47484;BMP280;54076;50.322;18.650;2023-06-04T02:53:29;98148.05;;;5.86
47484;BMP280;54076;50.322;18.650;2023-06-04T02:58:30;98147.91;;;5.85
47484;BMP280;54076;50.322;18.650;2023-06-04T03:03:32;98147.52;;;5.79
47484;BMP280;54076;50.322;18.650;2023-06-04T03:08:33;98148.72;;;5.70
47484;BMP280;54076;50.322;18.650;2023-06-04T03:13:35;98144.81;;;5.80
47484;BMP280;54076;50.322;18.650;2023-06-04T03:18:37;98144.65;;;5.87
47484;BMP280;54076;50.322;18.650;2023-06-04T03:23:39;98150.17;;;5.84
47484;BMP280;54076;50.322;18.650;2023-06-04T03:28:40;98157.23;;;5.85
47484;BMP280;54076;50.322;18.650;2023-06-04T03:33:41;98158.64;;;5.80
47484;BMP280;54076;50.322;18.650;2023-06-04T03:38:45;98171.73;;;5.90
47484;BMP280;54076;50.322;18.650;2023-06-04T03:43:47;98173.95;;;5.91
47484;BMP280;54076;50.322;18.650;2023-06-04T03:48:48;98169.63;;;5.97
47484;BMP280;54076;50.322;18.650;2023-06-04T03:53:49;98169.70;;;6.06
47484;BMP280;54076;50.322;18.650;2023-06-04T03:58:50;98172.98;;;6.15
47484;BMP280;54076;50.322;18.650;2023-06-04T04:03:52;98174.98;;;6.13
47484;BMP280;54076;50.322;18.650;2023-06-04T04:08:53;98174.02;;;6.15
47484;BMP280;54076;50.322;18.650;2023-06-04T04:13:54;98177.31;;;6.24
47484;BMP280;54076;50.322;18.650;2023-06-04T04:18:55;98182.02;;;6.49
47484;BMP280;54076;50.322;18.650;2023-06-04T04:23:56;98182.10;;;6.47
47484;BMP280;54076;50.322;18.650;2023-06-04T04:28:57;98185.09;;;6.75
47484;BMP280;54076;50.322;18.650;2023-06-04T04:33:58;98180.13;;;6.97
47484;BMP280;54076;50.322;18.650;2023-06-04T04:39:01;98182.91;;;7.18
47484;BMP280;54076;50.322;18.650;2023-06-04T04:44:05;98185.42;;;7.20
47484;BMP280;54076;50.322;18.650;2023-06-04T04:49:06;98179.77;;;7.43
47484;BMP280;54076;50.322;18.650;2023-06-04T04:54:07;98187.84;;;7.56
47484;BMP280;54076;50.322;18.650;2023-06-04T04:59:08;98192.60;;;7.71
47484;BMP280;54076;50.322;18.650;2023-06-04T05:04:09;98194.75;;;8.03
47484;BMP280;54076;50.322;18.650;2023-06-04T05:09:10;98196.25;;;8.30
47484;BMP280;54076;50.322;18.650;2023-06-04T05:14:11;98203.23;;;8.60
47484;BMP280;54076;50.322;18.650;2023-06-04T05:19:13;98204.66;;;8.78
47484;BMP280;54076;50.322;18.650;2023-06-04T05:24:14;98201.61;;;8.84
47484;BMP280;54076;50.322;18.650;2023-06-04T05:29:15;98205.20;;;9.21
47484;BMP280;54076;50.322;18.650;2023-06-04T05:34:16;98202.06;;;9.80
47484;BMP280;54076;50.322;18.650;2023-06-04T05:39:18;98204.97;;;9.78
47484;BMP280;54076;50.322;18.650;2023-06-04T05:44:21;98208.52;;;10.07
47484;BMP280;54076;50.322;18.650;2023-06-04T05:49:22;98212.92;;;10.21
47484;BMP280;54076;50.322;18.650;2023-06-04T05:54:26;98210.10;;;10.28
47484;BMP280;54076;50.322;18.650;2023-06-04T05:59:27;98212.69;;;10.55
47484;BMP280;54076;50.322;18.650;2023-06-04T06:04:28;98224.52;;;10.95
47484;BMP280;54076;50.322;18.650;2023-06-04T06:09:29;98225.86;;;10.91
47484;BMP280;54076;50.322;18.650;2023-06-04T06:14:30;98228.93;;;11.31
47484;BMP280;54076;50.322;18.650;2023-06-04T06:19:31;98234.39;;;11.59
47484;BMP280;54076;50.322;18.650;2023-06-04T06:24:32;98237.98;;;11.61
47484;BMP280;54076;50.322;18.650;2023-06-04T06:29:33;98237.14;;;11.90
47484;BMP280;54076;50.322;18.650;2023-06-04T06:34:34;98239.46;;;11.84
47484;BMP280;54076;50.322;18.650;2023-06-04T06:39:35;98236.61;;;11.88
47484;BMP280;54076;50.322;18.650;2023-06-04T06:44:36;98243.66;;;12.30
47484;BMP280;54076;50.322;18.650;2023-06-04T06:49:37;98244.16;;;12.08
47484;BMP280;54076;50.322;18.650;2023-06-04T06:54:38;98249.20;;;12.23
47484;BMP280;54076;50.322;18.650;2023-06-04T06:59:39;98245.20;;;12.05
47484;BMP280;54076;50.322;18.650;2023-06-04T07:04:40;98247.48;;;11.97
47484;BMP280;54076;50.322;18.650;2023-06-04T07:09:41;98248.70;;;12.21
47484;BMP280;54076;50.322;18.650;2023-06-04T07:14:42;98243.81;;;12.23
47484;BMP280;54076;50.322;18.650;2023-06-04T07:19:43;98245.61;;;12.32
47484;BMP280;54076;50.322;18.650;2023-06-04T07:24:44;98243.89;;;12.38
47484;BMP280;54076;50.322;18.650;2023-06-04T07:29:45;98240.13;;;12.45
47484;BMP280;54076;50.322;18.650;2023-06-04T07:34:46;98241.09;;;12.45
47484;BMP280;54076;50.322;18.650;2023-06-04T07:39:47;98247.36;;;12.43
47484;BMP280;54076;50.322;18.650;2023-06-04T07:44:48;98250.31;;;12.78
47484;BMP280;54076;50.322;18.650;2023-06-04T07:49:49;98250.59;;;12.88
47484;BMP280;54076;50.322;18.650;2023-06-04T07:54:51;98254.54;;;12.96
47484;BMP280;54076;50.322;18.650;2023-06-04T07:59:52;98252.27;;;12.96
47484;BMP280;54076;50.322;18.650;2023-06-04T08:04:53;98256.21;;;12.98
47484;BMP280;54076;50.322;18.650;2023-06-04T08:09:55;98259.55;;;13.21
47484;BMP280;54076;50.322;18.650;2023-06-04T08:14:57;98258.88;;;13.43
47484;BMP280;54076;50.322;18.650;2023-06-04T08:19:58;98259.38;;;13.54
47484;BMP280;54076;50.322;18.650;2023-06-04T08:24:59;98254.95;;;13.50
47484;BMP280;54076;50.322;18.650;2023-06-04T08:30:01;98259.18;;;13.67
47484;BMP280;54076;50.322;18.650;2023-06-04T08:35:03;98263.73;;;13.68
47484;BMP280;54076;50.322;18.650;2023-06-04T08:40:07;98261.80;;;13.99
47484;BMP280;54076;50.322;18.650;2023-06-04T08:45:11;98264.20;;;14.11
47484;BMP280;54076;50.322;18.650;2023-06-04T08:50:24;98266.92;;;14.46
47484;BMP280;54076;50.322;18.650;2023-06-04T08:55:26;98267.86;;;14.53
47484;BMP280;54076;50.322;18.650;2023-06-04T09:00:27;98272.34;;;14.99
47484;BMP280;54076;50.322;18.650;2023-06-04T09:05:29;98271.21;;;14.98
47484;BMP280;54076;50.322;18.650;2023-06-04T09:10:31;98276.76;;;14.85
47484;BMP280;54076;50.322;18.650;2023-06-04T09:15:33;98277.86;;;14.94
47484;BMP280;54076;50.322;18.650;2023-06-04T09:20:34;98278.68;;;15.23
47484;BMP280;54076;50.322;18.650;2023-06-04T09:25:42;98277.30;;;15.47
47484;BMP280;54076;50.322;18.650;2023-06-04T09:30:54;98279.92;;;15.90
47484;BMP280;54076;50.322;18.650;2023-06-04T09:35:58;98273.19;;;15.78
47484;BMP280;54076;50.322;18.650;2023-06-04T09:40:59;98275.16;;;15.79
47484;BMP280;54076;50.322;18.650;2023-06-04T09:46:13;98274.96;;;15.99
47484;BMP280;54076;50.322;18.650;2023-06-04T09:51:15;98273.45;;;16.08
47484;BMP280;54076;50.322;18.650;2023-06-04T09:56:20;98267.21;;;16.68
47484;BMP280;54076;50.322;18.650;2023-06-04T10:01:25;98268.95;;;16.40
47484;BMP280;54076;50.322;18.650;2023-06-04T10:06:27;98264.98;;;16.94
47484;BMP280;54076;50.322;18.650;2023-06-04T10:11:56;98270.70;;;17.57
47484;BMP280;54076;50.322;18.650;2023-06-04T10:16:58;98283.95;;;18.25
47484;BMP280;54076;50.322;18.650;2023-06-04T10:21:59;98281.16;;;18.71
47484;BMP280;54076;50.322;18.650;2023-06-04T10:27:01;98285.59;;;19.35
47484;BMP280;54076;50.322;18.650;2023-06-04T10:32:03;98293.11;;;19.76
47484;BMP280;54076;50.322;18.650;2023-06-04T10:37:04;98292.63;;;19.90
47484;BMP280;54076;50.322;18.650;2023-06-04T10:42:06;98291.62;;;20.07
47484;BMP280;54076;50.322;18.650;2023-06-04T10:47:26;98297.55;;;21.03
47484;BMP280;54076;50.322;18.650;2023-06-04T10:52:28;98299.06;;;20.90
47484;BMP280;54076;50.322;18.650;2023-06-04T10:57:29;98294.27;;;20.75
47484;BMP280;54076;50.322;18.650;2023-06-04T11:02:30;98295.45;;;20.72
47484;BMP280;54076;50.322;18.650;2023-06-04T11:07:44;98297.44;;;21.34
47484;BMP280;54076;50.322;18.650;2023-06-04T11:12:49;98299.13;;;21.41
47484;BMP280;54076;50.322;18.650;2023-06-04T11:17:56;98292.60;;;21.63
47484;BMP280;54076;50.322;18.650;2023-06-04T11:23:00;98295.60;;;21.96
47484;BMP280;54076;50.322;18.650;2023-06-04T11:28:04;98296.93;;;21.28
47484;BMP280;54076;50.322;18.650;2023-06-04T11:33:06;98298.17;;;21.64
47484;BMP280;54076;50.322;18.650;2023-06-04T11:38:07;98297.98;;;22.07
47484;BMP280;54076;50.322;18.650;2023-06-04T11:43:11;98270.81;;;21.64
47484;BMP280;54076;50.322;18.650;2023-06-04T11:48:12;98275.95;;;19.33
47484;BMP280;54076;50.322;18.650;2023-06-04T11:53:13;98283.59;;;21.62
47484;BMP280;54076;50.322;18.650;2023-06-04T11:58:14;98286.88;;;21.76
47484;BMP280;54076;50.322;18.650;2023-06-04T12:03:16;98288.86;;;22.44
47484;BMP280;54076;50.322;18.650;2023-06-04T12:08:17;98293.11;;;22.84
47484;BMP280;54076;50.322;18.650;2023-06-04T12:13:18;98296.15;;;23.27
47484;BMP280;54076;50.322;18.650;2023-06-04T12:18:24;98292.47;;;23.39
47484;BMP280;54076;50.322;18.650;2023-06-04T12:23:26;98289.99;;;24.39
47484;BMP280;54076;50.322;18.650;2023-06-04T12:28:27;98275.66;;;22.98
47484;BMP280;54076;50.322;18.650;2023-06-04T12:33:28;98278.90;;;23.64
47484;BMP280;54076;50.322;18.650;2023-06-04T12:38:29;98277.29;;;23.80
47484;BMP280;54076;50.322;18.650;2023-06-04T12:43:30;98273.99;;;23.27
47484;BMP280;54076;50.322;18.650;2023-06-04T12:48:35;98281.13;;;24.07
47484;BMP280;54076;50.322;18.650;2023-06-04T12:53:40;98273.95;;;23.00
47484;BMP280;54076;50.322;18.650;2023-06-04T12:58:41;98272.98;;;23.20
47484;BMP280;54076;50.322;18.650;2023-06-04T13:03:43;98277.34;;;24.14
47484;BMP280;54076;50.322;18.650;2023-06-04T13:08:44;98285.00;;;24.63
47484;BMP280;54076;50.322;18.650;2023-06-04T13:13:45;98272.67;;;23.52
47484;BMP280;54076;50.322;18.650;2023-06-04T13:18:46;98267.05;;;22.70
47484;BMP280;54076;50.322;18.650;2023-06-04T13:23:47;98256.64;;;22.77
47484;BMP280;54076;50.322;18.650;2023-06-04T13:28:48;98250.10;;;21.76
47484;BMP280;54076;50.322;18.650;2023-06-04T13:33:49;98238.09;;;21.32
47484;BMP280;54076;50.322;18.650;2023-06-04T13:38:50;98244.86;;;21.96
47484;BMP280;54076;50.322;18.650;2023-06-04T13:43:53;98239.63;;;21.17
47484;BMP280;54076;50.322;18.650;2023-06-04T13:48:54;98241.29;;;21.34
47484;BMP280;54076;50.322;18.650;2023-06-04T13:53:55;98240.14;;;21.48
47484;BMP280;54076;50.322;18.650;2023-06-04T13:58:56;98240.02;;;20.91
47484;BMP280;54076;50.322;18.650;2023-06-04T14:03:57;98235.79;;;20.34
47484;BMP280;54076;50.322;18.650;2023-06-04T14:08:59;98231.34;;;20.33
47484;BMP280;54076;50.322;18.650;2023-06-04T14:14:01;98234.21;;;20.31
47484;BMP280;54076;50.322;18.650;2023-06-04T14:19:02;98226.27;;;20.59
47484;BMP280;54076;50.322;18.650;2023-06-04T14:24:03;98224.98;;;20.42
47484;BMP280;54076;50.322;18.650;2023-06-04T14:29:04;98212.73;;;20.53
47484;BMP280;54076;50.322;18.650;2023-06-04T14:34:05;98219.22;;;21.07
47484;BMP280;54076;50.322;18.650;2023-06-04T14:39:09;98219.38;;;21.16
47484;BMP280;54076;50.322;18.650;2023-06-04T14:44:10;98215.06;;;21.75
47484;BMP280;54076;50.322;18.650;2023-06-04T14:49:11;98213.48;;;21.29
47484;BMP280;54076;50.322;18.650;2023-06-04T14:54:13;98211.58;;;21.37
47484;BMP280;54076;50.322;18.650;2023-06-04T14:59:14;98206.00;;;20.95
47484;BMP280;54076;50.322;18.650;2023-06-04T15:04:15;98209.60;;;21.82
47484;BMP280;54076;50.322;18.650;2023-06-04T15:09:16;98211.13;;;22.52
47484;BMP280;54076;50.322;18.650;2023-06-04T15:14:17;98211.88;;;23.28
47484;BMP280;54076;50.322;18.650;2023-06-04T15:19:18;98207.48;;;22.08
47484;BMP280;54076;50.322;18.650;2023-06-04T15:24:19;98209.24;;;22.61
47484;BMP280;54076;50.322;18.650;2023-06-04T15:29:22;98211.11;;;23.22
47484;BMP280;54076;50.322;18.650;2023-06-04T15:34:23;98214.48;;;23.95
47484;BMP280;54076;50.322;18.650;2023-06-04T15:39:24;98212.98;;;24.37
47484;BMP280;54076;50.322;18.650;2023-06-04T15:44:25;98202.08;;;22.85
47484;BMP280;54076;50.322;18.650;2023-06-04T15:49:27;98212.50;;;23.63
47484;BMP280;54076;50.322;18.650;2023-06-04T15:54:29;98214.27;;;24.75
47484;BMP280;54076;50.322;18.650;2023-06-04T15:59:30;98221.72;;;25.82
47484;BMP280;54076;50.322;18.650;2023-06-04T16:04:31;98219.08;;;25.25
47484;BMP280;54076;50.322;18.650;2023-06-04T16:09:32;98222.59;;;26.22
47484;BMP280;54076;50.322;18.650;2023-06-04T16:14:33;98216.84;;;26.10
47484;BMP280;54076;50.322;18.650;2023-06-04T16:19:34;98209.08;;;24.64
47484;BMP280;54076;50.322;18.650;2023-06-04T16:24:35;98213.75;;;24.87
47484;BMP280;54076;50.322;18.650;2023-06-04T16:29:36;98228.92;;;26.71
47484;BMP280;54076;50.322;18.650;2023-06-04T16:34:37;98236.54;;;28.35
47484;BMP280;54076;50.322;18.650;2023-06-04T16:39:38;98232.75;;;26.88
47484;BMP280;54076;50.322;18.650;2023-06-04T16:44:39;98240.08;;;28.23
47484;BMP280;54076;50.322;18.650;2023-06-04T16:49:40;98249.00;;;29.23
47484;BMP280;54076;50.322;18.650;2023-06-04T16:54:41;98245.17;;;28.16
47484;BMP280;54076;50.322;18.650;2023-06-04T16:59:45;98253.88;;;28.98
47484;BMP280;54076;50.322;18.650;2023-06-04T17:04:47;98247.34;;;28.49
47484;BMP280;54076;50.322;18.650;2023-06-04T17:09:49;98252.53;;;29.05
47484;BMP280;54076;50.322;18.650;2023-06-04T17:14:50;98243.06;;;28.10
47484;BMP280;54076;50.322;18.650;2023-06-04T17:19:51;98251.27;;;29.34
47484;BMP280;54076;50.322;18.650;2023-06-04T17:24:52;98249.20;;;28.47
47484;BMP280;54076;50.322;18.650;2023-06-04T17:29:53;98243.79;;;27.90
47484;BMP280;54076;50.322;18.650;2023-06-04T17:34:54;98242.40;;;27.69
47484;BMP280;54076;50.322;18.650;2023-06-04T17:39:55;98245.30;;;27.71
47484;BMP280;54076;50.322;18.650;2023-06-04T17:44:56;98247.98;;;26.89
47484;BMP280;54076;50.322;18.650;2023-06-04T17:49:57;98249.70;;;27.12
47484;BMP280;54076;50.322;18.650;2023-06-04T17:55:01;98251.16;;;27.20
47484;BMP280;54076;50.322;18.650;2023-06-04T18:00:03;98238.52;;;25.99
47484;BMP280;54076;50.322;18.650;2023-06-04T18:05:05;98238.27;;;24.77
47484;BMP280;54076;50.322;18.650;2023-06-04T18:10:07;98236.54;;;24.53
47484;BMP280;54076;50.322;18.650;2023-06-04T18:15:09;98225.17;;;23.20
47484;BMP280;54076;50.322;18.650;2023-06-04T18:20:11;98225.70;;;22.33
47484;BMP280;54076;50.322;18.650;2023-06-04T18:25:12;98213.05;;;21.02
47484;BMP280;54076;50.322;18.650;2023-06-04T18:30:13;98218.13;;;20.04
47484;BMP280;54076;50.322;18.650;2023-06-04T18:35:17;98209.08;;;18.70
47484;BMP280;54076;50.322;18.650;2023-06-04T18:40:18;98207.62;;;17.82
47484;BMP280;54076;50.322;18.650;2023-06-04T18:45:19;98207.51;;;17.11
47484;BMP280;54076;50.322;18.650;2023-06-04T18:50:20;98209.08;;;16.61
47484;BMP280;54076;50.322;18.650;2023-06-04T18:55:21;98210.17;;;16.23
47484;BMP280;54076;50.322;18.650;2023-06-04T19:00:22;98223.05;;;15.70
47484;BMP280;54076;50.322;18.650;2023-06-04T19:05:23;98222.52;;;15.31
47484;BMP280;54076;50.322;18.650;2023-06-04T19:10:24;98228.86;;;15.27
47484;BMP280;54076;50.322;18.650;2023-06-04T19:15:25;98236.15;;;14.89
47484;BMP280;54076;50.322;18.650;2023-06-04T19:20:26;98241.38;;;14.71
47484;BMP280;54076;50.322;18.650;2023-06-04T19:25:27;98241.27;;;14.48
47484;BMP280;54076;50.322;18.650;2023-06-04T19:30:28;98242.63;;;14.28
47484;BMP280;54076;50.322;18.650;2023-06-04T19:35:30;98247.59;;;14.09
47484;BMP280;54076;50.322;18.650;2023-06-04T19:40:31;98249.89;;;13.94
47484;BMP280;54076;50.322;18.650;2023-06-04T19:45:32;98247.98;;;13.83
47484;BMP280;54076;50.322;18.650;2023-06-04T19:50:33;98252.38;;;13.65
47484;BMP280;54076;50.322;18.650;2023-06-04T19:55:36;98256.16;;;13.55
47484;BMP280;54076;50.322;18.650;2023-06-04T20:00:36;98258.23;;;13.42
47484;BMP280;54076;50.322;18.650;2023-06-04T20:05:38;98252.70;;;13.25
47484;BMP280;54076;50.322;18.650;2023-06-04T20:10:39;98255.76;;;13.00
47484;BMP280;54076;50.322;18.650;2023-06-04T20:15:40;98256.00;;;12.88
47484;BMP280;54076;50.322;18.650;2023-06-04T20:20:41;98255.18;;;12.92
47484;BMP280;54076;50.322;18.650;2023-06-04T20:25:42;98259.34;;;13.00
47484;BMP280;54076;50.322;18.650;2023-06-04T20:30:43;98269.95;;;12.95
47484;BMP280;54076;50.322;18.650;2023-06-04T20:35:44;98265.62;;;12.71
47484;BMP280;54076;50.322;18.650;2023-06-04T20:40:46;98265.72;;;12.56
47484;BMP280;54076;50.322;18.650;2023-06-04T20:45:47;98268.66;;;12.51
47484;BMP280;54076;50.322;18.650;2023-06-04T20:50:48;98270.89;;;12.39
47484;BMP280;54076;50.322;18.650;2023-06-04T20:55:49;98265.16;;;12.34
47484;BMP280;54076;50.322;18.650;2023-06-04T21:00:50;98257.75;;;12.19
47484;BMP280;54076;50.322;18.650;2023-06-04T21:05:51;98263.77;;;12.01
47484;BMP280;54076;50.322;18.650;2023-06-04T21:10:52;98263.46;;;11.96
47484;BMP280;54076;50.322;18.650;2023-06-04T21:15:53;98261.14;;;12.00
47484;BMP280;54076;50.322;18.650;2023-06-04T21:20:54;98262.63;;;11.96
47484;BMP280;54076;50.322;18.650;2023-06-04T21:25:56;98260.61;;;11.86
47484;BMP280;54076;50.322;18.650;2023-06-04T21:30:57;98261.48;;;11.91
47484;BMP280;54076;50.322;18.650;2023-06-04T21:35:58;98266.73;;;11.90
47484;BMP280;54076;50.322;18.650;2023-06-04T21:40:58;98262.09;;;11.80
47484;BMP280;54076;50.322;18.650;2023-06-04T21:46:00;98265.50;;;11.62
47484;BMP280;54076;50.322;18.650;2023-06-04T21:51:01;98265.09;;;11.01
47484;BMP280;54076;50.322;18.650;2023-06-04T21:56:02;98264.19;;;10.61
47484;BMP280;54076;50.322;18.650;2023-06-04T22:01:04;98264.09;;;10.48
47484;BMP280;54076;50.322;18.650;2023-06-04T22:06:05;98263.04;;;10.72
47484;BMP280;54076;50.322;18.650;2023-06-04T22:11:06;98264.14;;;10.83
47484;BMP280;54076;50.322;18.650;2023-06-04T22:16:07;98267.70;;;10.95
47484;BMP280;54076;50.322;18.650;2023-06-04T22:21:08;98272.38;;;10.97
47484;BMP280;54076;50.322;18.650;2023-06-04T22:26:09;98280.04;;;10.74
47484;BMP280;54076;50.322;18.650;2023-06-04T22:31:10;98273.10;;;9.91
47484;BMP280;54076;50.322;18.650;2023-06-04T22:36:11;98268.59;;;9.83
47484;BMP280;54076;50.322;18.650;2023-06-04T22:41:12;98267.75;;;9.75
47484;BMP280;54076;50.322;18.650;2023-06-04T22:46:13;98271.91;;;9.45
47484;BMP280;54076;50.322;18.650;2023-06-04T22:51:14;98275.96;;;9.49
47484;BMP280;54076;50.322;18.650;2023-06-04T22:56:17;98273.35;;;9.56
47484;BMP280;54076;50.322;18.650;2023-06-04T23:01:18;98272.79;;;9.46
47484;BMP280;54076;50.322;18.650;2023-06-04T23:06:19;98270.11;;;9.23
47484;BMP280;54076;50.322;18.650;2023-06-04T23:11:21;98267.88;;;8.83
47484;BMP280;54076;50.322;18.650;2023-06-04T23:16:22;98275.39;;;9.05
47484;BMP280;54076;50.322;18.650;2023-06-04T23:21:23;98274.69;;;8.66
47484;BMP280;54076;50.322;18.650;2023-06-04T23:26:24;98271.89;;;8.52
47484;BMP280;54076;50.322;18.650;2023-06-04T23:31:26;98271.18;;;8.68
47484;BMP280;54076;50.322;18.650;2023-06-04T23:36:27;98270.22;;;8.21
47484;BMP280;54076;50.322;18.650;2023-06-04T23:41:28;98273.46;;;8.06
47484;BMP280;54076;50.322;18.650;2023-06-04T23:46:28;98271.30;;;8.04
47484;BMP280;54076;50.322;18.650;2023-06-04T23:51:30;98276.08;;;8.11
47484;BMP280;54076;50.322;18.650;2023-06-04T23:56:31;98270.27;;;8.01
